Paradise Park, California
Current Conditions -  °F | °C
As of 7:53 AM on Thursday 30 Oct 2014 (Local Time) from KWVI Reporting Station
Clear Clear  
Wind Chill: 57°   Ceiling: Unl
Heat Index: 57°   Visibility: 10mi
Dew Point: 49°   Wind: 5mph
Humidity: 74%   Direction: 310°NW
Pressure: 29.95"   Gusts: NA
Location:  37.0412°N, 122.124°W
Report Text: KWVI 301453Z AUTO 31004KT 10SM CLR 14/09 A2995 RMK AO2 SLP141 T01390094 53005
Loading
Personal Weather Stations






























Interactive Weather Map
Tropical Storm Tracking
New forecast layout! Learn more

10-Day Weather Forecast

Advertisements
Track Severe Weather on mobile